sensor_id;sensor_type;location;lat;lon;timestamp;pressure;altitude;pressure_sealevel;temperature;humidity
60244;BME280;46106;51.468;5.814;2023-02-20T00:02:23;102291.72;;;5.17;100.00
60244;BME280;46106;51.468;5.814;2023-02-20T00:04:48;102284.34;;;5.20;100.00
60244;BME280;46106;51.468;5.814;2023-02-20T00:07:14;102284.25;;;5.23;100.00
60244;BME280;46106;51.468;5.814;2023-02-20T00:09:39;102279.84;;;5.19;100.00
60244;BME280;46106;51.468;5.814;2023-02-20T00:12:05;102281.44;;;5.26;100.00
60244;BME280;46106;51.468;5.814;2023-02-20T00:14:30;102253.63;;;5.18;100.00
60244;BME280;46106;51.468;5.814;2023-02-20T00:16:56;102262.34;;;5.28;100.00
60244;BME280;46106;51.468;5.814;2023-02-20T00:19:22;102272.22;;;5.30;100.00
60244;BME280;46106;51.468;5.814;2023-02-20T00:21:48;102257.66;;;5.33;100.00
60244;BME280;46106;51.468;5.814;2023-02-20T00:24:15;102260.16;;;5.39;100.00
60244;BME280;46106;51.468;5.814;2023-02-20T00:26:49;102256.50;;;5.40;100.00
60244;BME280;46106;51.468;5.814;2023-02-20T00:29:19;102245.63;;;5.40;100.00
60244;BME280;46106;51.468;5.814;2023-02-20T00:31:56;102264.03;;;5.57;100.00
60244;BME280;46106;51.468;5.814;2023-02-20T00:34:24;102256.75;;;5.59;100.00
60244;BME280;46106;51.468;5.814;2023-02-20T00:36:50;102256.69;;;5.61;100.00
60244;BME280;46106;51.468;5.814;2023-02-20T00:39:15;102253.22;;;5.56;100.00
60244;BME280;46106;51.468;5.814;2023-02-20T00:41:41;102242.41;;;5.54;100.00
60244;BME280;46106;51.468;5.814;2023-02-20T00:44:06;102237.19;;;5.49;100.00
60244;BME280;46106;51.468;5.814;2023-02-20T00:46:32;102245.03;;;5.57;100.00
60244;BME280;46106;51.468;5.814;2023-02-20T00:48:58;102229.84;;;5.51;100.00
60244;BME280;46106;51.468;5.814;2023-02-20T00:51:23;102240.63;;;5.55;100.00
60244;BME280;46106;51.468;5.814;2023-02-20T00:53:49;102240.78;;;5.50;100.00
60244;BME280;46106;51.468;5.814;2023-02-20T00:56:14;102248.59;;;5.59;100.00
60244;BME280;46106;51.468;5.814;2023-02-20T00:58:40;102228.84;;;5.54;100.00
60244;BME280;46106;51.468;5.814;2023-02-20T01:01:06;102214.53;;;5.49;100.00
60244;BME280;46106;51.468;5.814;2023-02-20T01:03:31;102212.78;;;5.48;100.00
60244;BME280;46106;51.468;5.814;2023-02-20T01:05:57;102203.56;;;5.52;100.00
60244;BME280;46106;51.468;5.814;2023-02-20T01:08:23;102188.34;;;5.48;100.00
60244;BME280;46106;51.468;5.814;2023-02-20T01:10:48;102195.41;;;5.52;100.00
60244;BME280;46106;51.468;5.814;2023-02-20T01:13:14;102196.38;;;5.51;100.00
60244;BME280;46106;51.468;5.814;2023-02-20T01:15:39;102193.66;;;5.51;100.00
60244;BME280;46106;51.468;5.814;2023-02-20T01:18:05;102190.13;;;5.47;100.00
60244;BME280;46106;51.468;5.814;2023-02-20T01:20:30;102197.34;;;5.48;100.00
60244;BME280;46106;51.468;5.814;2023-02-20T01:22:56;102206.28;;;5.52;100.00
60244;BME280;46106;51.468;5.814;2023-02-20T01:25:22;102216.16;;;5.55;100.00
60244;BME280;46106;51.468;5.814;2023-02-20T01:27:47;102217.31;;;5.47;100.00
60244;BME280;46106;51.468;5.814;2023-02-20T01:30:13;102217.25;;;5.49;100.00
60244;BME280;46106;51.468;5.814;2023-02-20T01:32:38;102206.44;;;5.47;100.00
60244;BME280;46106;51.468;5.814;2023-02-20T01:35:04;102204.56;;;5.49;100.00
60244;BME280;46106;51.468;5.814;2023-02-20T01:37:30;102205.47;;;5.50;100.00
60244;BME280;46106;51.468;5.814;2023-02-20T01:39:56;102206.50;;;5.46;100.00
60244;BME280;46106;51.468;5.814;2023-02-20T01:42:23;102205.66;;;5.44;100.00
60244;BME280;46106;51.468;5.814;2023-02-20T01:44:49;102203.22;;;5.36;100.00
60244;BME280;46106;51.468;5.814;2023-02-20T01:47:16;102193.97;;;5.42;100.00
60244;BME280;46106;51.468;5.814;2023-02-20T01:49:55;102185.22;;;5.33;100.00
60244;BME280;46106;51.468;5.814;2023-02-20T01:52:29;102186.72;;;5.42;100.00
60244;BME280;46106;51.468;5.814;2023-02-20T01:55:18;102186.88;;;5.38;100.00
60244;BME280;46106;51.468;5.814;2023-02-20T01:57:50;102176.00;;;5.38;100.00
60244;BME280;46106;51.468;5.814;2023-02-20T02:00:20;102170.00;;;5.28;100.00
60244;BME280;46106;51.468;5.814;2023-02-20T02:03:01;102154.75;;;5.25;100.00
60244;BME280;46106;51.468;5.814;2023-02-20T02:05:30;102152.84;;;5.27;100.00
60244;BME280;46106;51.468;5.814;2023-02-20T02:07:56;102119.75;;;5.16;100.00
60244;BME280;46106;51.468;5.814;2023-02-20T02:10:36;102124.88;;;5.25;100.00
60244;BME280;46106;51.468;5.814;2023-02-20T02:13:02;102113.41;;;5.17;100.00
60244;BME280;46106;51.468;5.814;2023-02-20T02:15:28;102106.84;;;5.23;100.00
60244;BME280;46106;51.468;5.814;2023-02-20T02:30:00;102101.47;;;5.21;100.00
60244;BME280;46106;51.468;5.814;2023-02-20T02:38:30;102113.34;;;5.19;100.00
60244;BME280;46106;51.468;5.814;2023-02-20T02:41:14;102102.53;;;5.17;100.00
60244;BME280;46106;51.468;5.814;2023-02-20T02:44:17;102100.75;;;5.16;100.00
60244;BME280;46106;51.468;5.814;2023-02-20T02:46:55;102090.56;;;5.23;100.00
60244;BME280;46106;51.468;5.814;2023-02-20T02:52:12;102075.72;;;5.08;100.00
60244;BME280;46106;51.468;5.814;2023-02-20T02:54:58;102078.22;;;5.14;100.00
60244;BME280;46106;51.468;5.814;2023-02-20T02:57:26;102075.56;;;5.12;100.00
60244;BME280;46106;51.468;5.814;2023-02-20T03:00:09;102079.84;;;5.18;100.00
60244;BME280;46106;51.468;5.814;2023-02-20T03:03:26;102086.19;;;5.19;100.00
60244;BME280;46106;51.468;5.814;2023-02-20T03:05:56;102076.38;;;5.14;100.00
60244;BME280;46106;51.468;5.814;2023-02-20T03:08:32;102072.03;;;5.10;100.00
60244;BME280;46106;51.468;5.814;2023-02-20T03:11:04;102066.88;;;5.03;100.00
60244;BME280;46106;51.468;5.814;2023-02-20T03:13:36;102061.16;;;5.10;100.00
60244;BME280;46106;51.468;5.814;2023-02-20T03:16:27;102069.84;;;5.20;100.00
60244;BME280;46106;51.468;5.814;2023-02-20T03:18:58;102058.94;;;5.22;100.00
60244;BME280;46106;51.468;5.814;2023-02-20T03:21:25;102063.25;;;5.27;100.00
60244;BME280;46106;51.468;5.814;2023-02-20T03:23:56;102062.19;;;5.31;100.00
60244;BME280;46106;51.468;5.814;2023-02-20T03:26:28;102065.78;;;5.32;100.00
60244;BME280;46106;51.468;5.814;2023-02-20T03:29:09;102064.00;;;5.31;100.00
60244;BME280;46106;51.468;5.814;2023-02-20T03:31:47;102061.13;;;5.36;100.00
60244;BME280;46106;51.468;5.814;2023-02-20T03:34:20;102062.13;;;5.33;100.00
60244;BME280;46106;51.468;5.814;2023-02-20T03:37:18;102062.97;;;5.35;100.00
60244;BME280;46106;51.468;5.814;2023-02-20T03:40:06;102061.00;;;5.39;100.00
60244;BME280;46106;51.468;5.814;2023-02-20T03:42:57;102055.75;;;5.34;100.00
60244;BME280;46106;51.468;5.814;2023-02-20T03:45:43;102057.94;;;5.48;100.00
60244;BME280;46106;51.468;5.814;2023-02-20T03:48:19;102050.16;;;5.39;100.00
60244;BME280;46106;51.468;5.814;2023-02-20T03:50:46;102055.25;;;5.48;100.00
60244;BME280;46106;51.468;5.814;2023-02-20T03:53:30;102054.44;;;5.44;100.00
60244;BME280;46106;51.468;5.814;2023-02-20T03:56:00;102049.88;;;5.46;100.00
60244;BME280;46106;51.468;5.814;2023-02-20T03:58:28;102056.25;;;5.69;100.00
60244;BME280;46106;51.468;5.814;2023-02-20T04:00:57;102041.88;;;5.42;100.00
60244;BME280;46106;51.468;5.814;2023-02-20T04:03:29;102034.66;;;5.41;100.00
60244;BME280;46106;51.468;5.814;2023-02-20T04:05:58;102039.16;;;5.42;100.00
60244;BME280;46106;51.468;5.814;2023-02-20T04:08:31;102039.06;;;5.45;100.00
60244;BME280;46106;51.468;5.814;2023-02-20T04:11:21;102053.00;;;5.59;100.00
60244;BME280;46106;51.468;5.814;2023-02-20T04:13:50;102047.09;;;5.48;100.00
60244;BME280;46106;51.468;5.814;2023-02-20T04:16:17;102045.06;;;5.53;100.00
60244;BME280;46106;51.468;5.814;2023-02-20T04:18:44;102029.13;;;5.44;100.00
60244;BME280;46106;51.468;5.814;2023-02-20T04:21:38;102046.81;;;5.54;100.00
60244;BME280;46106;51.468;5.814;2023-02-20T04:24:11;102059.19;;;5.63;100.00
60244;BME280;46106;51.468;5.814;2023-02-20T04:26:38;102053.63;;;5.66;100.00
60244;BME280;46106;51.468;5.814;2023-02-20T04:29:05;102051.97;;;5.62;100.00
60244;BME280;46106;51.468;5.814;2023-02-20T04:31:31;102059.72;;;5.73;100.00
60244;BME280;46106;51.468;5.814;2023-02-20T04:33:57;102047.06;;;5.71;100.00
60244;BME280;46106;51.468;5.814;2023-02-20T04:36:23;102047.81;;;5.75;100.00
60244;BME280;46106;51.468;5.814;2023-02-20T04:38:52;102048.97;;;5.69;100.00
60244;BME280;46106;51.468;5.814;2023-02-20T04:41:17;102051.44;;;5.76;100.00
60244;BME280;46106;51.468;5.814;2023-02-20T04:43:43;102043.75;;;5.63;100.00
60244;BME280;46106;51.468;5.814;2023-02-20T04:46:08;102057.56;;;5.81;100.00
60244;BME280;46106;51.468;5.814;2023-02-20T04:48:34;102054.00;;;5.79;100.00
60244;BME280;46106;51.468;5.814;2023-02-20T04:50:59;102056.50;;;5.85;100.00
60244;BME280;46106;51.468;5.814;2023-02-20T04:53:25;102051.06;;;5.85;100.00
60244;BME280;46106;51.468;5.814;2023-02-20T04:55:50;102076.09;;;5.93;100.00
60244;BME280;46106;51.468;5.814;2023-02-20T04:58:16;102062.50;;;5.93;100.00
60244;BME280;46106;51.468;5.814;2023-02-20T05:00:42;102067.13;;;5.91;100.00
60244;BME280;46106;51.468;5.814;2023-02-20T05:03:07;102067.06;;;5.93;100.00
60244;BME280;46106;51.468;5.814;2023-02-20T05:05:32;102041.16;;;5.84;100.00
60244;BME280;46106;51.468;5.814;2023-02-20T05:08:06;102054.59;;;5.87;100.00
60244;BME280;46106;51.468;5.814;2023-02-20T05:10:33;102059.66;;;5.98;100.00
60244;BME280;46106;51.468;5.814;2023-02-20T05:13:00;102069.25;;;6.06;100.00
60244;BME280;46106;51.468;5.814;2023-02-20T05:15:27;102062.75;;;6.11;100.00
60244;BME280;46106;51.468;5.814;2023-02-20T05:17:52;102058.25;;;6.10;100.00
60244;BME280;46106;51.468;5.814;2023-02-20T05:20:18;102058.00;;;6.16;100.00
60244;BME280;46106;51.468;5.814;2023-02-20T05:22:45;102043.97;;;6.04;100.00
60244;BME280;46106;51.468;5.814;2023-02-20T05:25:11;102062.06;;;6.05;100.00
60244;BME280;46106;51.468;5.814;2023-02-20T05:27:37;102063.38;;;6.17;100.00
60244;BME280;46106;51.468;5.814;2023-02-20T05:30:05;102059.72;;;6.18;100.00
60244;BME280;46106;51.468;5.814;2023-02-20T05:32:31;102052.81;;;6.10;100.00
60244;BME280;46106;51.468;5.814;2023-02-20T05:34:56;102056.22;;;6.15;100.00
60244;BME280;46106;51.468;5.814;2023-02-20T05:37:24;102050.84;;;6.13;100.00
60244;BME280;46106;51.468;5.814;2023-02-20T05:39:50;102056.16;;;6.16;100.00
60244;BME280;46106;51.468;5.814;2023-02-20T05:42:16;102056.94;;;6.20;100.00
60244;BME280;46106;51.468;5.814;2023-02-20T05:44:42;102058.56;;;6.24;100.00
60244;BME280;46106;51.468;5.814;2023-02-20T05:47:08;102067.81;;;6.20;100.00
60244;BME280;46106;51.468;5.814;2023-02-20T05:49:34;102058.50;;;6.25;100.00
60244;BME280;46106;51.468;5.814;2023-02-20T05:52:00;102066.66;;;6.25;100.00
60244;BME280;46106;51.468;5.814;2023-02-20T05:54:28;102056.53;;;6.29;100.00
60244;BME280;46106;51.468;5.814;2023-02-20T05:56:54;102062.59;;;6.36;100.00
60244;BME280;46106;51.468;5.814;2023-02-20T05:59:21;102057.16;;;6.36;100.00
60244;BME280;46106;51.468;5.814;2023-02-20T06:01:48;102060.63;;;6.39;100.00
60244;BME280;46106;51.468;5.814;2023-02-20T06:04:17;102072.38;;;6.41;100.00
60244;BME280;46106;51.468;5.814;2023-02-20T06:06:43;102057.91;;;6.39;100.00
60244;BME280;46106;51.468;5.814;2023-02-20T06:09:10;102046.22;;;6.37;100.00
60244;BME280;46106;51.468;5.814;2023-02-20T06:11:37;102062.44;;;6.40;100.00
60244;BME280;46106;51.468;5.814;2023-02-20T06:14:04;102057.91;;;6.39;100.00
60244;BME280;46106;51.468;5.814;2023-02-20T06:16:31;102067.53;;;6.48;100.00
60244;BME280;46106;51.468;5.814;2023-02-20T06:18:56;102052.56;;;6.38;100.00
60244;BME280;46106;51.468;5.814;2023-02-20T06:21:27;102054.94;;;6.46;100.00
60244;BME280;46106;51.468;5.814;2023-02-20T06:23:54;102042.38;;;6.43;100.00
60244;BME280;46106;51.468;5.814;2023-02-20T06:26:20;102063.59;;;6.55;100.00
60244;BME280;46106;51.468;5.814;2023-02-20T06:28:46;102062.91;;;6.50;100.00
60244;BME280;46106;51.468;5.814;2023-02-20T06:31:23;102060.75;;;6.58;100.00
60244;BME280;46106;51.468;5.814;2023-02-20T06:33:52;102046.78;;;6.46;100.00
60244;BME280;46106;51.468;5.814;2023-02-20T06:36:30;102062.47;;;6.61;100.00
60244;BME280;46106;51.468;5.814;2023-02-20T06:38:57;102063.22;;;6.65;100.00
60244;BME280;46106;51.468;5.814;2023-02-20T06:41:23;102065.69;;;6.71;100.00
60244;BME280;46106;51.468;5.814;2023-02-20T06:43:49;102034.78;;;6.51;100.00
60244;BME280;46106;51.468;5.814;2023-02-20T06:46:14;102058.66;;;6.65;100.00
60244;BME280;46106;51.468;5.814;2023-02-20T06:48:48;102064.66;;;6.73;100.00
60244;BME280;46106;51.468;5.814;2023-02-20T06:51:19;102047.75;;;6.65;100.00
60244;BME280;46106;51.468;5.814;2023-02-20T06:53:44;102056.47;;;6.73;100.00
60244;BME280;46106;51.468;5.814;2023-02-20T06:56:14;102055.47;;;6.76;100.00
60244;BME280;46106;51.468;5.814;2023-02-20T06:58:44;102059.06;;;6.76;100.00
60244;BME280;46106;51.468;5.814;2023-02-20T07:01:09;102053.63;;;6.76;100.00
60244;BME280;46106;51.468;5.814;2023-02-20T07:03:35;102061.41;;;6.86;100.00
60244;BME280;46106;51.468;5.814;2023-02-20T07:06:01;102057.28;;;6.75;100.00
60244;BME280;46106;51.468;5.814;2023-02-20T07:08:27;102052.75;;;6.76;100.00
60244;BME280;46106;51.468;5.814;2023-02-20T07:10:52;102057.03;;;6.81;100.00
60244;BME280;46106;51.468;5.814;2023-02-20T07:13:22;102059.63;;;6.85;100.00
60244;BME280;46106;51.468;5.814;2023-02-20T07:15:48;102074.03;;;6.87;100.00
60244;BME280;46106;51.468;5.814;2023-02-20T07:18:14;102040.81;;;6.78;100.00
60244;BME280;46106;51.468;5.814;2023-02-20T07:20:41;102075.69;;;6.91;100.00
60244;BME280;46106;51.468;5.814;2023-02-20T07:23:07;102077.38;;;6.93;100.00
60244;BME280;46106;51.468;5.814;2023-02-20T07:25:32;102076.44;;;6.94;100.00
60244;BME280;46106;51.468;5.814;2023-02-20T07:27:58;102070.84;;;6.97;100.00
60244;BME280;46106;51.468;5.814;2023-02-20T07:30:23;102073.38;;;7.02;100.00
60244;BME280;46106;51.468;5.814;2023-02-20T07:32:51;102068.88;;;7.01;100.00
60244;BME280;46106;51.468;5.814;2023-02-20T07:35:17;102058.78;;;7.03;100.00
60244;BME280;46106;51.468;5.814;2023-02-20T07:37:42;102085.75;;;7.09;100.00
60244;BME280;46106;51.468;5.814;2023-02-20T07:40:08;102076.91;;;7.04;100.00
60244;BME280;46106;51.468;5.814;2023-02-20T07:42:34;102080.91;;;7.16;100.00
60244;BME280;46106;51.468;5.814;2023-02-20T07:44:59;102074.00;;;7.09;100.00
60244;BME280;46106;51.468;5.814;2023-02-20T07:47:25;102077.72;;;7.06;100.00
60244;BME280;46106;51.468;5.814;2023-02-20T07:49:50;102075.59;;;7.13;100.00
60244;BME280;46106;51.468;5.814;2023-02-20T07:52:16;102078.06;;;7.19;100.00
60244;BME280;46106;51.468;5.814;2023-02-20T07:54:41;102078.25;;;7.14;100.00
60244;BME280;46106;51.468;5.814;2023-02-20T07:57:07;102076.22;;;7.20;100.00
60244;BME280;46106;51.468;5.814;2023-02-20T07:59:33;102075.59;;;7.13;100.00
60244;BME280;46106;51.468;5.814;2023-02-20T08:01:59;102081.06;;;7.13;100.00
60244;BME280;46106;51.468;5.814;2023-02-20T08:04:24;102076.28;;;7.18;100.00
60244;BME280;46106;51.468;5.814;2023-02-20T08:06:50;102078.94;;;7.20;100.00
60244;BME280;46106;51.468;5.814;2023-02-20T08:09:15;102065.75;;;7.10;100.00
60244;BME280;46106;51.468;5.814;2023-02-20T08:11:40;102076.22;;;7.20;100.00
60244;BME280;46106;51.468;5.814;2023-02-20T08:14:07;102068.47;;;7.10;100.00
60244;BME280;46106;51.468;5.814;2023-02-20T08:16:32;102060.31;;;7.10;100.00
60244;BME280;46106;51.468;5.814;2023-02-20T08:18:58;102070.22;;;7.11;100.00
60244;BME280;46106;51.468;5.814;2023-02-20T08:21:23;102062.19;;;7.08;100.00
60244;BME280;46106;51.468;5.814;2023-02-20T08:23:52;102069.28;;;7.12;100.00
60244;BME280;46106;51.468;5.814;2023-02-20T08:26:22;102070.34;;;7.29;100.00
60244;BME280;46106;51.468;5.814;2023-02-20T08:28:48;102057.28;;;7.16;100.00
60244;BME280;46106;51.468;5.814;2023-02-20T08:31:14;102076.00;;;7.45;100.00
60244;BME280;46106;51.468;5.814;2023-02-20T08:33:40;102072.81;;;7.35;100.00
60244;BME280;46106;51.468;5.814;2023-02-20T08:36:05;102067.34;;;7.35;100.00
60244;BME280;46106;51.468;5.814;2023-02-20T08:38:36;102065.22;;;7.42;100.00
60244;BME280;46106;51.468;5.814;2023-02-20T08:41:06;102070.69;;;7.42;100.00
60244;BME280;46106;51.468;5.814;2023-02-20T08:43:33;102066.91;;;7.44;100.00
60244;BME280;46106;51.468;5.814;2023-02-20T08:45:59;102060.78;;;7.39;100.00
60244;BME280;46106;51.468;5.814;2023-02-20T08:48:25;102067.75;;;7.46;100.00
60244;BME280;46106;51.468;5.814;2023-02-20T08:50:51;102061.03;;;7.53;100.00
60244;BME280;46106;51.468;5.814;2023-02-20T08:53:17;102064.19;;;7.44;100.00
60244;BME280;46106;51.468;5.814;2023-02-20T08:55:42;102059.25;;;7.52;100.00
60244;BME280;46106;51.468;5.814;2023-02-20T08:58:08;102050.88;;;7.57;100.00
60244;BME280;46106;51.468;5.814;2023-02-20T09:00:34;102051.13;;;7.71;100.00
60244;BME280;46106;51.468;5.814;2023-02-20T09:02:59;102054.97;;;7.67;100.00
60244;BME280;46106;51.468;5.814;2023-02-20T09:05:25;102058.91;;;7.60;100.00
60244;BME280;46106;51.468;5.814;2023-02-20T09:07:51;102059.22;;;7.73;100.00
60244;BME280;46106;51.468;5.814;2023-02-20T09:10:20;102063.66;;;7.76;100.00
60244;BME280;46106;51.468;5.814;2023-02-20T09:12:46;102064.38;;;7.79;100.00
60244;BME280;46106;51.468;5.814;2023-02-20T09:15:12;102061.81;;;7.76;100.00
60244;BME280;46106;51.468;5.814;2023-02-20T09:17:43;102060.31;;;7.69;100.00
60244;BME280;46106;51.468;5.814;2023-02-20T09:20:09;102069.63;;;7.84;100.00
60244;BME280;46106;51.468;5.814;2023-02-20T09:22:35;102061.59;;;7.81;100.00
60244;BME280;46106;51.468;5.814;2023-02-20T09:25:03;102060.53;;;7.83;100.00
60244;BME280;46106;51.468;5.814;2023-02-20T09:27:29;102065.47;;;7.75;100.00
60244;BME280;46106;51.468;5.814;2023-02-20T09:29:55;102074.09;;;7.85;100.00
60244;BME280;46106;51.468;5.814;2023-02-20T09:32:20;102064.50;;;7.95;100.00
60244;BME280;46106;51.468;5.814;2023-02-20T09:34:45;102068.66;;;7.85;100.00
60244;BME280;46106;51.468;5.814;2023-02-20T09:37:11;102062.31;;;7.84;100.00
60244;BME280;46106;51.468;5.814;2023-02-20T09:39:37;102070.22;;;7.90;100.00
60244;BME280;46106;51.468;5.814;2023-02-20T09:45:18;102063.13;;;8.05;100.00
60244;BME280;46106;51.468;5.814;2023-02-20T09:50:55;102060.00;;;8.13;100.00
60244;BME280;46106;51.468;5.814;2023-02-20T09:53:28;102062.06;;;8.08;100.00
60244;BME280;46106;51.468;5.814;2023-02-20T09:55:57;102061.78;;;7.95;100.00
60244;BME280;46106;51.468;5.814;2023-02-20T09:58:48;102059.75;;;8.00;100.00
60244;BME280;46106;51.468;5.814;2023-02-20T10:01:19;102064.88;;;8.06;100.00
60244;BME280;46106;51.468;5.814;2023-02-20T10:03:55;102057.44;;;8.10;100.00
60244;BME280;46106;51.468;5.814;2023-02-20T10:06:28;102056.38;;;8.13;100.00
60244;BME280;46106;51.468;5.814;2023-02-20T10:08:54;102032.19;;;7.87;100.00
60244;BME280;46106;51.468;5.814;2023-02-20T10:11:38;102043.19;;;8.03;100.00
60244;BME280;46106;51.468;5.814;2023-02-20T10:14:33;102049.50;;;8.23;100.00
60244;BME280;46106;51.468;5.814;2023-02-20T10:20:10;102030.97;;;8.12;100.00
60244;BME280;46106;51.468;5.814;2023-02-20T10:22:50;102041.72;;;8.15;100.00
60244;BME280;46106;51.468;5.814;2023-02-20T10:25:27;102041.06;;;8.10;100.00
60244;BME280;46106;51.468;5.814;2023-02-20T10:28:07;102037.41;;;8.28;100.00
60244;BME280;46106;51.468;5.814;2023-02-20T10:38:07;102065.66;;;8.27;100.00
60244;BME280;46106;51.468;5.814;2023-02-20T10:40:55;102065.28;;;8.35;100.00
60244;BME280;46106;51.468;5.814;2023-02-20T10:46:05;102056.81;;;8.22;100.00
60244;BME280;46106;51.468;5.814;2023-02-20T10:48:32;102057.41;;;8.29;100.00
60244;BME280;46106;51.468;5.814;2023-02-20T10:51:19;102058.25;;;8.29;100.00
60244;BME280;46106;51.468;5.814;2023-02-20T10:53:56;102038.38;;;8.27;100.00
60244;BME280;46106;51.468;5.814;2023-02-20T10:56:30;102029.56;;;8.40;100.00
60244;BME280;46106;51.468;5.814;2023-02-20T11:01:32;102029.19;;;8.48;100.00
60244;BME280;46106;51.468;5.814;2023-02-20T11:04:13;102030.91;;;8.50;100.00
60244;BME280;46106;51.468;5.814;2023-02-20T11:06:55;102032.75;;;8.50;100.00
60244;BME280;46106;51.468;5.814;2023-02-20T11:09:21;102033.25;;;8.39;100.00
60244;BME280;46106;51.468;5.814;2023-02-20T11:11:51;102018.34;;;8.46;100.00
60244;BME280;46106;51.468;5.814;2023-02-20T11:14:23;102036.34;;;8.50;100.00
60244;BME280;46106;51.468;5.814;2023-02-20T11:17:12;102027.84;;;8.56;100.00
60244;BME280;46106;51.468;5.814;2023-02-20T11:22:12;102042.38;;;8.57;100.00
60244;BME280;46106;51.468;5.814;2023-02-20T11:24:39;102032.09;;;8.44;100.00
60244;BME280;46106;51.468;5.814;2023-02-20T11:27:22;102041.59;;;8.55;100.00
60244;BME280;46106;51.468;5.814;2023-02-20T11:30:01;102022.25;;;8.40;100.00
60244;BME280;46106;51.468;5.814;2023-02-20T11:35:23;102033.69;;;8.49;100.00
60244;BME280;46106;51.468;5.814;2023-02-20T11:40:44;102037.47;;;8.46;100.00
60244;BME280;46106;51.468;5.814;2023-02-20T11:43:20;102048.06;;;8.52;100.00
60244;BME280;46106;51.468;5.814;2023-02-20T11:45:46;102025.28;;;8.53;100.00
60244;BME280;46106;51.468;5.814;2023-02-20T11:48:17;102011.88;;;8.49;100.00
60244;BME280;46106;51.468;5.814;2023-02-20T11:50:44;102017.88;;;8.55;100.00
60244;BME280;46106;51.468;5.814;2023-02-20T11:53:36;102015.06;;;8.57;100.00
60244;BME280;46106;51.468;5.814;2023-02-20T11:58:39;102016.38;;;8.50;100.00
60244;BME280;46106;51.468;5.814;2023-02-20T12:01:05;101989.50;;;8.40;100.00
60244;BME280;46106;51.468;5.814;2023-02-20T12:03:33;101989.88;;;8.52;100.00
60244;BME280;46106;51.468;5.814;2023-02-20T12:06:45;101990.81;;;8.51;100.00
60244;BME280;46106;51.468;5.814;2023-02-20T12:08:53;102012.66;;;8.51;100.00
60244;BME280;46106;51.468;5.814;2023-02-20T12:11:23;102010.50;;;8.57;100.00
60244;BME280;46106;51.468;5.814;2023-02-20T12:13:51;102007.91;;;8.54;100.00
60244;BME280;46106;51.468;5.814;2023-02-20T12:16:21;102010.00;;;8.49;100.00
60244;BME280;46106;51.468;5.814;2023-02-20T12:26:48;101985.06;;;8.57;100.00
60244;BME280;46106;51.468;5.814;2023-02-20T12:32:05;101979.25;;;8.45;100.00
60244;BME280;46106;51.468;5.814;2023-02-20T12:35:02;101988.81;;;8.54;100.00
60244;BME280;46106;51.468;5.814;2023-02-20T12:40:35;101992.53;;;8.71;100.00
60244;BME280;46106;51.468;5.814;2023-02-20T12:46:40;101954.19;;;8.72;100.00
60244;BME280;46106;51.468;5.814;2023-02-20T12:58:19;101931.47;;;8.72;100.00
60244;BME280;46106;51.468;5.814;2023-02-20T13:03:19;101934.03;;;8.75;100.00
60244;BME280;46106;51.468;5.814;2023-02-20T13:05:49;101919.81;;;8.86;100.00
60244;BME280;46106;51.468;5.814;2023-02-20T13:08:55;101901.56;;;8.86;100.00
60244;BME280;46106;51.468;5.814;2023-02-20T13:11:25;101894.69;;;8.79;100.00
60244;BME280;46106;51.468;5.814;2023-02-20T13:19:24;101905.81;;;8.92;100.00
60244;BME280;46106;51.468;5.814;2023-02-20T13:21:50;101884.50;;;8.82;100.00
60244;BME280;46106;51.468;5.814;2023-02-20T13:26:53;101892.44;;;8.87;100.00
60244;BME280;46106;51.468;5.814;2023-02-20T13:29:25;101892.22;;;8.90;100.00
60244;BME280;46106;51.468;5.814;2023-02-20T13:31:54;101895.16;;;8.87;100.00
60244;BME280;46106;51.468;5.814;2023-02-20T13:34:36;101900.88;;;8.98;100.00
60244;BME280;46106;51.468;5.814;2023-02-20T13:37:03;101888.03;;;9.00;100.00
60244;BME280;46106;51.468;5.814;2023-02-20T13:39:40;101888.84;;;9.02;100.00
60244;BME280;46106;51.468;5.814;2023-02-20T13:42:38;101902.41;;;9.04;100.00
60244;BME280;46106;51.468;5.814;2023-02-20T13:45:42;101904.44;;;9.00;100.00
60244;BME280;46106;51.468;5.814;2023-02-20T13:54:26;101882.50;;;9.02;100.00
60244;BME280;46106;51.468;5.814;2023-02-20T13:56:50;101892.34;;;9.05;100.00
60244;BME280;46106;51.468;5.814;2023-02-20T13:59:15;101880.25;;;8.93;100.00
60244;BME280;46106;51.468;5.814;2023-02-20T14:02:13;101875.59;;;8.95;100.00
60244;BME280;46106;51.468;5.814;2023-02-20T14:04:57;101868.91;;;9.00;100.00
60244;BME280;46106;51.468;5.814;2023-02-20T14:07:37;101873.31;;;9.03;100.00
60244;BME280;46106;51.468;5.814;2023-02-20T14:10:16;101895.00;;;9.06;100.00
60244;BME280;46106;51.468;5.814;2023-02-20T14:12:41;101880.47;;;9.06;100.00
60244;BME280;46106;51.468;5.814;2023-02-20T14:15:08;101873.06;;;9.08;100.00
60244;BME280;46106;51.468;5.814;2023-02-20T14:17:34;101860.47;;;9.05;100.00
60244;BME280;46106;51.468;5.814;2023-02-20T14:20:05;101851.38;;;9.05;100.00
60244;BME280;46106;51.468;5.814;2023-02-20T14:22:39;101853.06;;;9.07;100.00
60244;BME280;46106;51.468;5.814;2023-02-20T14:27:36;101836.66;;;8.91;100.00
60244;BME280;46106;51.468;5.814;2023-02-20T14:30:13;101848.63;;;9.05;100.00
60244;BME280;46106;51.468;5.814;2023-02-20T14:32:46;101851.53;;;9.01;100.00
60244;BME280;46106;51.468;5.814;2023-02-20T14:36:00;101859.75;;;9.01;100.00
60244;BME280;46106;51.468;5.814;2023-02-20T14:38:37;101870.31;;;9.08;100.00
60244;BME280;46106;51.468;5.814;2023-02-20T14:41:16;101869.72;;;9.02;100.00
60244;BME280;46106;51.468;5.814;2023-02-20T14:43:43;101859.28;;;8.93;100.00
60244;BME280;46106;51.468;5.814;2023-02-20T14:46:21;101859.03;;;8.98;100.00
60244;BME280;46106;51.468;5.814;2023-02-20T14:48:47;101852.53;;;9.00;100.00